Time;durP1;ratioP1;P1;durP2;ratioP2;P2;SDS_P1;SDS_P2;PMS_P1;PMS_P2;Temp;Humidity;BMP_temperature;BMP_pressure;BME280_temperature;BME280_humidity;BME280_pressure;Samples;Min_cycle;Max_cycle;Signal;HPM_P1;HPM_P2
2023/02/15 08:19:43;;;;;;;4.50;2.33;;;5.00;99.90;;;;;;5138080;27;20278;-80
2023/02/15 08:22:13;;;;;;;3.70;2.43;;;5.50;99.90;;;;;;5116485;28;20607;-80
2023/02/15 08:24:39;;;;;;;4.30;2.67;;;6.10;99.90;;;;;;5120345;28;20193;-80
2023/02/15 08:27:10;;;;;;;3.93;3.03;;;6.70;99.90;;;;;;5131629;28;20588;-80
2023/02/15 08:29:37;;;;;;;4.90;3.17;;;7.20;99.90;;;;;;5133271;27;20161;-80
2023/02/15 08:32:06;;;;;;;4.73;3.43;;;7.70;99.90;;;;;;5131349;28;20238;-81
2023/02/15 08:34:38;;;;;;;6.17;3.10;;;7.90;99.90;;;;;;5131112;28;20322;-81
2023/02/15 08:37:05;;;;;;;3.20;2.47;;;8.00;97.60;;;;;;5132118;27;20190;-81
2023/02/15 08:39:31;;;;;;;3.67;2.57;;;7.80;96.80;;;;;;5130708;28;20207;-81
2023/02/15 08:41:57;;;;;;;3.63;2.20;;;7.70;96.20;;;;;;5132879;28;20536;-81
2023/02/15 08:46:47;;;;;;;4.63;2.00;;;7.80;94.70;;;;;;5135451;27;20263;-81
2023/02/15 08:49:16;;;;;;;2.50;2.03;;;7.60;95.20;;;;;;5116354;28;20179;-81
2023/02/15 08:51:42;;;;;;;2.73;2.07;;;7.70;94.30;;;;;;5115088;28;20182;-81
2023/02/15 08:57:30;;;;;;;3.23;2.17;;;7.10;94.30;;;;;;5114205;27;20722;-80
2023/02/15 08:59:56;;;;;;;2.80;1.93;;;7.30;95.30;;;;;;5111858;28;20274;-79
2023/02/15 09:02:21;;;;;;;3.70;2.20;;;7.40;94.60;;;;;;5112970;28;20183;-79
2023/02/15 09:04:47;;;;;;;3.67;2.20;;;7.60;93.40;;;;;;5111910;28;20584;-81
2023/02/15 09:07:13;;;;;;;4.37;2.37;;;7.70;93.40;;;;;;5111907;28;20711;-81
2023/02/15 09:09:38;;;;;;;6.17;2.27;;;8.00;93.60;;;;;;5112047;28;20182;-81
2023/02/15 09:12:05;;;;;;;3.07;2.30;;;8.30;92.90;;;;;;5113196;28;20260;-81
2023/02/15 09:14:30;;;;;;;5.07;2.30;;;8.40;93.40;;;;;;5112058;28;20200;-81
2023/02/15 09:16:56;;;;;;;5.17;2.57;;;8.90;93.20;;;;;;5113291;28;20197;-81
2023/02/15 09:19:23;;;;;;;10.53;2.80;;;9.30;92.60;;;;;;5113363;28;20614;-81
2023/02/15 09:21:49;;;;;;;7.43;2.73;;;9.70;91.50;;;;;;5113344;28;20178;-81
2023/02/15 09:24:16;;;;;;;3.80;2.47;;;9.70;88.90;;;;;;5112984;28;20283;-81
2023/02/15 09:26:44;;;;;;;4.30;2.43;;;9.90;89.90;;;;;;5111802;28;20180;-82
2023/02/15 09:29:11;;;;;;;9.03;4.77;;;10.40;86.80;;;;;;5112921;28;20174;-81
2023/02/15 09:31:44;;;;;;;8.83;4.27;;;10.60;84.00;;;;;;5113356;28;20700;-81
2023/02/15 09:34:15;;;;;;;8.10;4.03;;;11.10;86.20;;;;;;5111740;28;20272;-81
2023/02/15 09:36:41;;;;;;;11.37;4.60;;;11.50;85.00;;;;;;5111745;28;20198;-82
2023/02/15 09:39:10;;;;;;;11.77;7.40;;;11.80;81.80;;;;;;5113223;28;20221;-82
2023/02/15 09:42:00;;;;;;;12.30;6.33;;;12.20;81.30;;;;;;5113162;28;20569;-82
2023/02/15 09:44:41;;;;;;;8.23;4.97;;;12.70;79.30;;;;;;5111959;28;20250;-82
2023/02/15 09:47:44;;;;;;;9.37;5.57;;;13.00;76.80;;;;;;5112011;28;20214;-82
2023/02/15 09:50:26;;;;;;;7.27;3.30;;;13.30;78.30;;;;;;5113110;28;20180;-82
2023/02/15 09:53:19;;;;;;;5.00;2.33;;;13.40;73.40;;;;;;5111979;28;20169;-82
2023/02/15 09:55:57;;;;;;;8.33;3.27;;;13.70;71.30;;;;;;5111799;28;20217;-82
2023/02/15 09:58:22;;;;;;;6.50;2.20;;;13.90;69.70;;;;;;5115175;28;20171;-82
2023/02/15 10:01:12;;;;;;;5.33;2.57;;;14.00;70.40;;;;;;5126969;28;20172;-82
2023/02/15 10:04:05;;;;;;;4.43;2.37;;;14.10;68.90;;;;;;5126250;28;20168;-83
2023/02/15 10:06:51;;;;;;;4.17;2.20;;;14.40;67.90;;;;;;5113048;28;20576;-82
2023/02/15 10:09:44;;;;;;;3.30;1.43;;;14.60;69.30;;;;;;5097804;28;20179;-82
2023/02/15 10:12:33;;;;;;;3.67;1.97;;;14.80;60.90;;;;;;5097929;28;20207;-82
2023/02/15 10:15:09;;;;;;;2.63;1.60;;;14.80;60.40;;;;;;5097897;28;20232;-82
2023/02/15 10:17:53;;;;;;;2.50;1.60;;;14.90;64.70;;;;;;5099921;28;20176;-83
2023/02/15 10:20:38;;;;;;;3.00;2.17;;;15.40;61.40;;;;;;5100395;28;20203;-83
2023/02/15 10:23:09;;;;;;;2.57;2.33;;;15.60;60.50;;;;;;5100940;28;20168;-83
2023/02/15 10:25:55;;;;;;;4.80;2.10;;;15.60;60.80;;;;;;5100439;28;20685;-83
2023/02/15 10:28:49;;;;;;;7.37;2.60;;;15.80;61.00;;;;;;5102546;28;20335;-82
2023/02/15 10:31:20;;;;;;;4.10;2.30;;;16.10;65.60;;;;;;5100797;28;20172;-84
2023/02/15 10:33:54;;;;;;;9.27;2.60;;;15.90;69.90;;;;;;5101603;28;20175;-82
2023/02/15 10:36:47;;;;;;;6.10;2.53;;;15.80;70.50;;;;;;5097207;28;20216;-83
2023/02/15 10:39:40;;;;;;;3.43;2.50;;;15.60;70.70;;;;;;5101659;28;20158;-83
2023/02/15 10:42:15;;;;;;;5.77;3.10;;;15.30;72.70;;;;;;5100119;28;20241;-83
2023/02/15 10:44:56;;;;;;;3.93;2.40;;;15.30;71.30;;;;;;5097732;28;20262;-82
2023/02/15 10:47:43;;;;;;;7.13;3.70;;;15.30;76.30;;;;;;5096239;28;20168;-82
2023/02/15 10:50:26;;;;;;;5.13;2.93;;;15.90;75.70;;;;;;5095894;28;20244;-82
2023/02/15 10:52:58;;;;;;;6.37;2.80;;;16.20;71.30;;;;;;5096869;28;20522;-82
2023/02/15 10:55:46;;;;;;;6.57;2.70;;;16.30;70.60;;;;;;5096783;28;20213;-82
2023/02/15 10:58:44;;;;;;;6.17;2.97;;;16.50;70.90;;;;;;5095716;28;20169;-82
2023/02/15 11:01:23;;;;;;;5.53;3.03;;;16.60;70.40;;;;;;5096217;28;20178;-83
2023/02/15 11:03:54;;;;;;;5.23;2.90;;;16.20;68.50;;;;;;5096517;28;20226;-82
2023/02/15 11:06:22;;;;;;;5.73;2.70;;;16.20;69.10;;;;;;5096777;28;20535;-82
2023/02/15 11:08:53;;;;;;;4.40;2.63;;;16.00;69.20;;;;;;5096394;28;20165;-82
2023/02/15 11:11:28;;;;;;;3.60;2.70;;;15.80;69.50;;;;;;5094960;28;20164;-82
2023/02/15 11:14:02;;;;;;;4.27;2.40;;;16.10;71.10;;;;;;5094415;28;20187;-82
2023/02/15 11:16:37;;;;;;;4.43;2.63;;;16.50;68.60;;;;;;5096119;28;20188;-82
2023/02/15 11:19:18;;;;;;;5.30;2.60;;;16.90;64.30;;;;;;5095359;28;20160;-83
2023/02/15 11:21:49;;;;;;;5.23;2.83;;;17.40;66.70;;;;;;5097171;28;20172;-82
2023/02/15 11:24:19;;;;;;;4.43;2.90;;;17.50;63.70;;;;;;5095673;28;20224;-82
2023/02/15 11:27:16;;;;;;;5.10;2.53;;;17.80;65.10;;;;;;5096509;28;20302;-82
2023/02/15 11:30:10;;;;;;;6.13;2.90;;;17.80;63.90;;;;;;5095856;28;20186;-82
2023/02/15 11:32:45;;;;;;;7.33;2.90;;;17.70;63.50;;;;;;5096948;28;20180;-82
2023/02/15 11:35:14;;;;;;;7.73;2.73;;;18.00;65.60;;;;;;5096727;28;20192;-82
2023/02/15 11:37:51;;;;;;;3.60;3.13;;;18.50;63.10;;;;;;5096758;28;20178;-82
2023/02/15 11:40:34;;;;;;;5.87;2.90;;;18.80;60.00;;;;;;5095447;28;20610;-82
2023/02/15 11:43:06;;;;;;;8.07;3.00;;;18.40;60.40;;;;;;5095374;28;20208;-82
2023/02/15 11:45:34;;;;;;;6.10;2.90;;;18.70;59.90;;;;;;5095357;28;20692;-83
2023/02/15 11:48:01;;;;;;;5.40;2.87;;;19.00;59.10;;;;;;5095103;28;20183;-83
2023/02/15 11:50:30;;;;;;;14.07;3.57;;;19.20;60.40;;;;;;5096841;28;20172;-82
2023/02/15 11:53:03;;;;;;;7.10;3.50;;;19.40;58.10;;;;;;5094727;28;20173;-82
2023/02/15 11:55:29;;;;;;;9.27;3.70;;;19.00;59.70;;;;;;5095166;28;20567;-82
2023/02/15 11:58:03;;;;;;;8.03;3.60;;;18.90;60.10;;;;;;5097235;28;20161;-83
2023/02/15 12:00:43;;;;;;;7.23;2.97;;;18.60;59.80;;;;;;5096781;28;20168;-83
2023/02/15 12:03:24;;;;;;;5.27;3.20;;;18.10;63.50;;;;;;5096750;28;20168;-82
2023/02/15 12:05:58;;;;;;;7.40;4.20;;;18.20;60.90;;;;;;5095118;28;20199;-83
2023/02/15 12:08:36;;;;;;;7.67;3.10;;;18.40;61.80;;;;;;5094966;28;20168;-82
2023/02/15 12:11:25;;;;;;;5.97;3.00;;;18.80;61.70;;;;;;5096430;28;20552;-83
2023/02/15 12:13:56;;;;;;;4.27;2.90;;;19.30;59.60;;;;;;5095018;28;20534;-82
2023/02/15 12:16:22;;;;;;;3.93;3.03;;;19.40;60.90;;;;;;5095234;28;20202;-82
2023/02/15 12:18:50;;;;;;;3.27;2.90;;;19.70;59.20;;;;;;5095009;28;20178;-82
2023/02/15 12:21:27;;;;;;;9.20;3.50;;;19.60;58.30;;;;;;5096132;28;20658;-82
2023/02/15 12:23:57;;;;;;;3.23;2.77;;;19.80;59.30;;;;;;5096507;28;20162;-82
2023/02/15 12:26:32;;;;;;;3.60;3.10;;;19.70;57.50;;;;;;5096470;28;20208;-82
2023/02/15 12:29:20;;;;;;;3.67;3.23;;;20.10;58.20;;;;;;5095509;28;20172;-82
2023/02/15 12:31:49;;;;;;;6.60;3.70;;;20.30;57.50;;;;;;5094793;28;20176;-83
2023/02/15 12:34:26;;;;;;;3.40;3.10;;;20.30;58.10;;;;;;5095888;28;20201;-82
2023/02/15 12:36:57;;;;;;;4.80;3.20;;;20.50;57.90;;;;;;5096127;28;20187;-82
2023/02/15 12:39:28;;;;;;;5.13;3.50;;;20.90;57.30;;;;;;5096216;28;20599;-80
2023/02/15 12:41:54;;;;;;;5.37;4.43;;;20.80;56.10;;;;;;5095287;28;20177;-81
2023/02/15 12:44:28;;;;;;;4.90;3.73;;;21.00;56.00;;;;;;5095955;28;20192;-81
2023/02/15 12:47:07;;;;;;;4.10;3.23;;;21.20;55.90;;;;;;5094177;28;20629;-81
2023/02/15 12:49:35;;;;;;;4.90;3.33;;;21.40;55.20;;;;;;5096543;28;20191;-81
2023/02/15 12:52:23;;;;;;;4.07;3.20;;;21.30;55.90;;;;;;5095180;28;20205;-81
2023/02/15 12:54:50;;;;;;;6.00;4.27;;;20.90;54.90;;;;;;5096065;28;20691;-80
2023/02/15 12:57:33;;;;;;;4.00;3.00;;;21.00;55.20;;;;;;5094022;28;20572;-80
2023/02/15 13:00:05;;;;;;;4.83;3.33;;;21.20;53.60;;;;;;5095252;28;20203;-81
2023/02/15 13:02:40;;;;;;;3.33;3.03;;;21.40;52.90;;;;;;5096845;28;20589;-81
2023/02/15 13:05:18;;;;;;;3.63;3.23;;;21.50;53.40;;;;;;5095309;28;20198;-81
2023/02/15 13:07:51;;;;;;;3.23;2.83;;;22.00;53.70;;;;;;5093951;28;20540;-80
2023/02/15 13:10:28;;;;;;;3.13;2.77;;;21.60;51.70;;;;;;5094163;28;20164;-81
2023/02/15 13:12:57;;;;;;;5.33;3.30;;;21.50;53.20;;;;;;5095043;28;20162;-81
2023/02/15 13:15:46;;;;;;;4.80;3.37;;;22.00;52.40;;;;;;5094024;28;20228;-81
2023/02/15 13:18:19;;;;;;;3.87;3.30;;;22.60;50.70;;;;;;5093617;28;20160;-81
2023/02/15 13:20:46;;;;;;;4.27;2.97;;;22.40;49.90;;;;;;5094311;28;20529;-81
2023/02/15 13:23:41;;;;;;;5.50;3.13;;;22.20;49.70;;;;;;5094201;28;20184;-80
2023/02/15 13:26:15;;;;;;;4.50;2.73;;;22.40;49.70;;;;;;5094700;28;20188;-81
2023/02/15 13:28:55;;;;;;;3.97;3.13;;;22.90;48.90;;;;;;5094711;28;20276;-82
2023/02/15 13:31:27;;;;;;;6.87;3.90;;;22.80;49.10;;;;;;5095989;28;20196;-82
2023/02/15 13:34:32;;;;;;;5.20;4.07;;;22.90;48.60;;;;;;5094706;28;20164;-82
2023/02/15 13:37:21;;;;;;;4.93;3.77;;;23.80;48.40;;;;;;5095532;28;20208;-82
2023/02/15 13:40:04;;;;;;;3.57;2.93;;;23.70;44.90;;;;;;5105528;28;20184;-81
2023/02/15 13:42:41;;;;;;;5.07;3.40;;;23.20;45.40;;;;;;5112922;28;20162;-81
2023/02/15 13:45:26;;;;;;;7.50;3.70;;;22.20;46.10;;;;;;5109390;28;20192;-81
2023/02/15 13:48:16;;;;;;;4.17;3.07;;;20.10;48.60;;;;;;5096826;28;20235;-81
2023/02/15 13:51:04;;;;;;;6.20;3.30;;;18.00;51.70;;;;;;5098549;28;20252;-83
2023/02/15 13:54:11;;;;;;;6.57;3.50;;;17.20;53.50;;;;;;5097787;28;20184;-82
2023/02/15 13:57:15;;;;;;;5.33;3.03;;;19.00;52.00;;;;;;5096939;28;20253;-82
2023/02/15 14:00:07;;;;;;;4.53;3.60;;;21.10;49.50;;;;;;5096801;28;20169;-81
2023/02/15 14:02:48;;;;;;;4.20;3.40;;;22.30;47.00;;;;;;5098599;28;20157;-82
2023/02/15 14:05:26;;;;;;;4.87;3.27;;;22.80;46.10;;;;;;5097272;28;20228;-79
2023/02/15 14:08:48;;;;;;;4.77;3.90;;;22.20;46.20;;;;;;5098587;28;20161;-80
2023/02/15 14:11:35;;;;;;;4.93;3.77;;;22.20;46.80;;;;;;5059656;28;20393;-82
2023/02/15 14:14:01;;;;;;;6.97;3.63;;;23.20;45.40;;;;;;5074908;28;20193;-82
2023/02/15 14:16:41;;;;;;;9.40;4.10;;;23.50;44.50;;;;;;5089382;28;20226;-82
2023/02/15 14:19:31;;;;;;;8.97;3.83;;;23.30;44.40;;;;;;5098605;28;20159;-82
2023/02/15 14:22:38;;;;;;;5.10;4.00;;;20.80;46.00;;;;;;5098751;28;20171;-82
2023/02/15 14:25:40;;;;;;;6.27;4.47;;;18.40;49.50;;;;;;5098606;28;20200;-82
2023/02/15 14:28:18;;;;;;;5.90;3.87;;;16.80;52.30;;;;;;5098686;28;20170;-82
2023/02/15 14:30:48;;;;;;;5.40;4.10;;;15.50;54.60;;;;;;5097461;28;20260;-82
2023/02/15 14:33:35;;;;;;;7.90;5.03;;;14.70;55.80;;;;;;5097572;28;20168;-82
2023/02/15 14:36:02;;;;;;;7.30;4.90;;;14.30;56.60;;;;;;5097407;28;20200;-82
2023/02/15 14:38:59;;;;;;;7.97;5.17;;;14.10;57.60;;;;;;5097864;28;20202;-82
2023/02/15 14:41:31;;;;;;;8.63;4.43;;;13.80;58.40;;;;;;5097178;28;20176;-81
2023/02/15 14:44:37;;;;;;;8.33;4.73;;;13.70;59.40;;;;;;5096876;28;20168;-81
2023/02/15 14:47:09;;;;;;;9.53;5.10;;;13.60;59.00;;;;;;5098574;28;20247;-82
2023/02/15 14:49:39;;;;;;;7.53;4.77;;;13.40;59.10;;;;;;5099464;28;20175;-81
2023/02/15 14:52:08;;;;;;;10.30;5.30;;;13.30;59.50;;;;;;5098440;28;20697;-80
2023/02/15 14:54:33;;;;;;;9.77;5.20;;;13.20;59.80;;;;;;5096312;28;20196;-80
2023/02/15 14:57:02;;;;;;;11.47;5.17;;;13.20;59.40;;;;;;5097584;28;20206;-80
2023/02/15 14:59:52;;;;;;;10.20;5.17;;;12.90;59.70;;;;;;5096857;28;20180;-80
2023/02/15 15:02:47;;;;;;;7.33;4.57;;;12.90;60.00;;;;;;5097119;28;20157;-80
2023/02/15 15:05:21;;;;;;;7.67;4.30;;;12.90;60.00;;;;;;5096163;28;20227;-80
2023/02/15 15:07:53;;;;;;;9.50;4.90;;;12.90;60.00;;;;;;5098412;28;20207;-80
2023/02/15 15:10:20;;;;;;;16.03;4.90;;;12.90;60.40;;;;;;5096326;28;20187;-80
2023/02/15 15:12:57;;;;;;;11.27;6.20;;;12.80;62.10;;;;;;5096711;28;20566;-80
2023/02/15 15:15:29;;;;;;;9.10;5.03;;;12.80;61.70;;;;;;5097884;28;20676;-80
2023/02/15 15:18:04;;;;;;;7.27;4.67;;;12.60;63.70;;;;;;5096300;28;20173;-80
2023/02/15 15:20:47;;;;;;;6.97;4.37;;;12.50;64.60;;;;;;5098211;28;20187;-80
2023/02/15 15:23:16;;;;;;;7.70;4.30;;;12.40;66.80;;;;;;5097634;28;20267;-80
2023/02/15 16:17:21;;;;;;;8.60;6.87;;;10.30;99.00;;;;;;5136055;27;20274;-79
